Terminal Aerodrome Forecast
Issued by NWS Sioux Falls, SD

Home | Current Version | Previous Version | Text Only | Print | Product List | Glossary On
Versions: 1 2 3 4 5 6 7 8 9 10 11 12 13 14 15 16 17
000
FTUS43 KFSD 201136
TAFSUX
TAF
KSUX 201136Z 2012/2112 34012KT P6SM VCSH OVC030
     FM201300 33012KT P6SM OVC030
     FM201500 32015G20KT P6SM OVC035
     FM202300 32015KT P6SM SCT070
     FM210500 33009KT P6SM FEW150=

USA.gov is the U.S. government's official web portal to all federal, state and local government web resources and services.